Time;durP1;ratioP1;P1;durP2;ratioP2;P2;SDS_P1;SDS_P2;PMS_P1;PMS_P2;Temp;Humidity;BMP_temperature;BMP_pressure;BME280_temperature;BME280_humidity;BME280_pressure;Samples;Min_cycle;Max_cycle;Signal;HPM_P1;HPM_P2
2022/08/24 00:02:02;;;;;;;1.70;1.27;;;24.20;56.50;;;;;;5044604;28;20045;-50
2022/08/24 00:04:29;;;;;;;1.42;1.42;;;24.20;56.50;;;;;;5044955;28;20037;-49
2022/08/24 00:06:58;;;;;;;2.60;1.15;;;24.20;56.50;;;;;;5032749;28;20520;-52
2022/08/24 00:09:25;;;;;;;1.52;1.42;;;24.20;56.50;;;;;;5033971;28;20037;-50
2022/08/24 00:11:52;;;;;;;2.78;1.50;;;24.20;56.50;;;;;;5041420;28;20045;-48
2022/08/24 00:14:21;;;;;;;2.17;1.23;;;24.10;56.50;;;;;;5034969;28;20055;-53
2022/08/24 00:16:52;;;;;;;1.63;1.30;;;24.10;56.40;;;;;;5036754;28;20406;-53
2022/08/24 00:19:23;;;;;;;1.38;1.13;;;24.00;56.40;;;;;;5031261;28;20416;-53
2022/08/24 00:21:50;;;;;;;1.92;1.30;;;24.00;56.30;;;;;;5039624;28;20517;-52
2022/08/24 00:24:18;;;;;;;4.20;1.20;;;23.90;56.40;;;;;;5051494;28;20624;-52
2022/08/24 00:26:47;;;;;;;0.90;0.90;;;23.90;56.30;;;;;;5047030;28;20062;-53
2022/08/24 00:29:16;;;;;;;2.78;1.33;;;23.80;56.40;;;;;;5027581;28;20052;-49
2022/08/24 00:31:43;;;;;;;1.27;1.10;;;23.90;56.50;;;;;;5038863;28;20099;-53
2022/08/24 00:34:12;;;;;;;2.08;1.20;;;23.80;56.40;;;;;;5049741;28;20041;-50
2022/08/24 00:36:40;;;;;;;1.58;1.33;;;23.70;56.50;;;;;;5040811;28;20034;-49
2022/08/24 00:39:13;;;;;;;1.67;1.45;;;23.70;56.60;;;;;;5033911;28;20510;-52
2022/08/24 00:41:43;;;;;;;2.40;1.42;;;23.70;56.90;;;;;;5007678;28;20114;-53
2022/08/24 00:44:10;;;;;;;1.65;1.27;;;23.60;56.80;;;;;;5051101;28;20037;-52
2022/08/24 00:46:52;;;;;;;1.80;1.20;;;23.60;56.70;;;;;;5022409;28;20042;-52
2022/08/24 00:49:40;;;;;;;2.67;1.13;;;23.60;57.10;;;;;;5039664;28;20099;-51
2022/08/24 00:52:20;;;;;;;2.72;1.02;;;23.50;57.00;;;;;;5048821;28;20033;-50
2022/08/24 00:54:59;;;;;;;1.17;1.10;;;23.50;57.30;;;;;;5050743;28;20121;-53
2022/08/24 00:57:35;;;;;;;1.67;1.20;;;23.40;57.00;;;;;;5018155;28;20053;-51
2022/08/24 01:00:16;;;;;;;3.20;1.60;;;23.40;57.40;;;;;;5036488;28;20042;-51
2022/08/24 01:02:47;;;;;;;1.95;1.48;;;23.30;57.40;;;;;;5050466;28;20052;-53
2022/08/24 01:05:16;;;;;;;1.33;1.23;;;23.30;57.30;;;;;;5036178;28;20348;-53
2022/08/24 01:07:43;;;;;;;1.55;1.20;;;23.20;57.00;;;;;;5038995;28;20094;-52
2022/08/24 01:10:26;;;;;;;1.60;1.50;;;23.20;57.20;;;;;;5042357;28;20398;-53
2022/08/24 01:13:00;;;;;;;1.70;1.38;;;23.20;57.50;;;;;;5026605;28;20054;-52
2022/08/24 01:15:32;;;;;;;1.40;1.30;;;23.10;57.50;;;;;;5035797;28;20382;-51
2022/08/24 01:20:57;;;;;;;1.17;1.17;;;23.00;57.20;;;;;;4992848;28;20048;-53
2022/08/24 01:23:32;;;;;;;1.88;1.70;;;23.00;58.20;;;;;;5016491;28;20044;-52
2022/08/24 01:26:04;;;;;;;2.10;1.98;;;23.00;57.30;;;;;;5034224;28;20041;-53
2022/08/24 01:28:34;;;;;;;1.13;1.10;;;22.90;57.40;;;;;;5024518;28;20037;-52
2022/08/24 01:31:03;;;;;;;1.67;1.58;;;22.90;57.50;;;;;;5031990;28;20555;-50
2022/08/24 01:33:31;;;;;;;1.45;1.38;;;22.90;57.50;;;;;;5012377;28;20465;-53
2022/08/24 01:36:18;;;;;;;4.60;1.80;;;22.80;57.50;;;;;;5036700;28;20449;-53
2022/08/24 01:38:49;;;;;;;2.75;1.75;;;23.00;58.20;;;;;;5028114;28;20057;-50
2022/08/24 01:41:20;;;;;;;1.40;1.30;;;22.80;57.60;;;;;;5016514;28;20045;-52
2022/08/24 01:43:55;;;;;;;1.67;1.50;;;22.70;57.70;;;;;;4982258;28;20060;-50
2022/08/24 01:46:22;;;;;;;1.55;1.45;;;22.70;57.60;;;;;;5020220;28;20052;-50
2022/08/24 01:48:52;;;;;;;1.92;1.70;;;22.70;57.80;;;;;;5045077;28;20041;-53
2022/08/24 01:51:27;;;;;;;1.75;1.65;;;22.70;57.70;;;;;;5043143;28;20045;-49
2022/08/24 01:53:54;;;;;;;3.60;1.70;;;22.60;57.90;;;;;;5028753;28;20041;-52
2022/08/24 01:56:24;;;;;;;1.80;1.70;;;22.60;57.70;;;;;;5036515;28;20045;-49
2022/08/24 01:58:53;;;;;;;1.77;1.67;;;22.60;58.10;;;;;;5030490;28;20060;-52
2022/08/24 02:01:24;;;;;;;2.10;1.80;;;22.60;58.10;;;;;;5007056;28;20041;-50
2022/08/24 02:04:00;;;;;;;4.93;1.50;;;22.50;58.00;;;;;;5027327;28;20052;-53
2022/08/24 02:06:27;;;;;;;1.65;1.55;;;22.50;57.90;;;;;;5009975;28;20140;-49
2022/08/24 02:08:56;;;;;;;1.98;1.88;;;22.50;57.90;;;;;;5012868;28;20076;-53
2022/08/24 02:11:27;;;;;;;1.75;1.65;;;22.40;58.00;;;;;;5012861;28;20702;-50
2022/08/24 02:14:00;;;;;;;2.28;1.75;;;22.40;58.20;;;;;;5048182;22;20571;31
2022/08/24 02:16:27;;;;;;;2.03;1.80;;;22.50;58.30;;;;;;5022954;28;20511;-48
2022/08/24 02:18:57;;;;;;;3.25;1.88;;;22.30;58.00;;;;;;5007873;28;20146;-48
2022/08/24 02:21:25;;;;;;;2.20;1.83;;;22.30;58.20;;;;;;4999547;28;20050;-49
2022/08/24 02:23:52;;;;;;;2.15;1.75;;;22.30;58.20;;;;;;5025265;28;20605;-47
2022/08/24 02:26:19;;;;;;;2.03;1.85;;;22.20;58.10;;;;;;4988696;28;20043;-47
2022/08/24 02:28:59;;;;;;;1.40;1.30;;;22.20;58.20;;;;;;5006334;28;20070;-47
2022/08/24 02:31:35;;;;;;;3.30;2.05;;;22.20;58.20;;;;;;5000948;28;20042;-49
2022/08/24 02:34:03;;;;;;;2.90;2.58;;;22.20;58.30;;;;;;5008775;28;20478;-46
2022/08/24 02:36:30;;;;;;;3.38;2.30;;;22.10;58.30;;;;;;5023947;28;20079;-49
2022/08/24 02:38:57;;;;;;;3.10;1.75;;;22.10;58.30;;;;;;5004212;28;20053;-47
2022/08/24 02:41:25;;;;;;;2.03;1.92;;;22.10;58.30;;;;;;5024384;28;20066;-45
2022/08/24 02:44:03;;;;;;;3.88;2.05;;;22.00;58.40;;;;;;5008772;28;20407;-48
2022/08/24 02:46:32;;;;;;;3.25;1.90;;;22.00;58.50;;;;;;5023894;28;20598;-45
2022/08/24 02:49:02;;;;;;;2.15;1.95;;;22.00;58.50;;;;;;5005699;28;20062;-50
2022/08/24 02:51:43;;;;;;;2.13;1.85;;;22.00;58.50;;;;;;5024460;28;20541;-48
2022/08/24 02:54:16;;;;;;;2.72;2.30;;;22.00;58.60;;;;;;5008603;28;20078;-48
2022/08/24 02:56:53;;;;;;;3.05;1.83;;;21.90;58.60;;;;;;5002886;28;20042;-48
2022/08/24 02:59:23;;;;;;;2.08;1.70;;;21.90;58.60;;;;;;5002465;28;20038;-45
2022/08/24 03:01:51;;;;;;;2.08;1.83;;;21.90;58.70;;;;;;5011261;28;20058;-49
2022/08/24 03:04:19;;;;;;;1.75;1.65;;;21.80;58.80;;;;;;5008826;28;20060;-48
2022/08/24 03:06:49;;;;;;;1.88;1.73;;;21.90;59.00;;;;;;5017978;28;20074;-49
2022/08/24 03:09:20;;;;;;;2.25;2.05;;;21.80;58.90;;;;;;5010015;28;20041;-50
2022/08/24 03:11:54;;;;;;;3.00;2.80;;;21.80;58.90;;;;;;5010315;28;20100;-48
2022/08/24 03:14:21;;;;;;;3.50;1.90;;;21.70;59.10;;;;;;5032271;28;20073;-50
2022/08/24 03:16:49;;;;;;;1.90;1.80;;;21.70;58.80;;;;;;5040529;28;20395;-47
2022/08/24 03:19:21;;;;;;;2.05;1.63;;;21.70;58.80;;;;;;5048578;28;20076;-46
2022/08/24 03:21:48;;;;;;;2.40;2.22;;;21.70;59.00;;;;;;5046699;28;20088;-48
2022/08/24 03:24:17;;;;;;;2.45;1.90;;;21.70;59.00;;;;;;5030911;28;20041;-46
2022/08/24 03:26:44;;;;;;;1.95;1.85;;;21.70;59.10;;;;;;5030413;28;20107;-50
2022/08/24 03:29:12;;;;;;;1.70;1.60;;;21.60;59.10;;;;;;5048758;28;20132;-47
2022/08/24 03:31:41;;;;;;;3.75;1.67;;;21.60;59.10;;;;;;5030548;28;20053;-50
2022/08/24 03:34:12;;;;;;;2.97;1.75;;;21.60;59.10;;;;;;5041720;28;20053;-47
2022/08/24 03:36:48;;;;;;;2.70;2.15;;;21.60;59.20;;;;;;5032783;28;20060;-50
2022/08/24 03:39:16;;;;;;;2.58;2.38;;;21.50;59.20;;;;;;5032044;28;20529;-51
2022/08/24 03:41:43;;;;;;;2.28;1.90;;;21.50;59.10;;;;;;5047018;28;20391;-50
2022/08/24 03:44:12;;;;;;;2.17;2.08;;;21.50;59.20;;;;;;5026223;28;20045;-46
2022/08/24 03:46:45;;;;;;;3.17;2.10;;;21.50;59.30;;;;;;5046420;28;20045;-48
2022/08/24 03:49:14;;;;;;;2.40;2.20;;;21.50;59.50;;;;;;5048288;28;20070;-47
2022/08/24 03:51:46;;;;;;;1.80;1.70;;;21.40;59.40;;;;;;5030396;28;20041;-46
2022/08/24 03:54:13;;;;;;;2.10;1.98;;;21.40;59.40;;;;;;5041285;28;20096;-47
2022/08/24 03:56:41;;;;;;;2.83;2.00;;;21.40;59.40;;;;;;5040920;28;20056;-50
2022/08/24 03:59:13;;;;;;;3.10;2.03;;;21.30;59.50;;;;;;5047674;28;20068;-50
2022/08/24 04:01:47;;;;;;;2.13;2.03;;;21.30;59.40;;;;;;5041372;28;20049;-45
2022/08/24 04:04:14;;;;;;;2.28;2.08;;;21.30;59.40;;;;;;5047589;28;20056;-47
2022/08/24 04:06:45;;;;;;;3.10;1.98;;;21.30;59.60;;;;;;5045925;28;20045;-48
2022/08/24 04:09:15;;;;;;;;;;;21.30;59.70;;;;;;5048476;28;20103;-48
2022/08/24 04:11:48;;;;;;;3.22;1.73;;;21.30;59.10;;;;;;5056395;28;19925;-50
2022/08/24 04:14:20;;;;;;;3.33;1.85;;;21.30;60.10;;;;;;5032128;28;20091;-46
2022/08/24 04:17:13;;;;;;;3.13;1.92;;;21.20;59.40;;;;;;5046041;28;20458;-47
2022/08/24 04:19:56;;;;;;;1.85;1.75;;;21.20;59.40;;;;;;5036844;28;20655;-46
2022/08/24 04:22:28;;;;;;;5.57;1.95;;;21.20;59.40;;;;;;5045482;28;20041;-50
2022/08/24 04:24:57;;;;;;;5.10;2.47;;;21.20;59.40;;;;;;5031306;28;20315;-49
2022/08/24 04:27:25;;;;;;;2.97;2.50;;;21.20;59.50;;;;;;5046306;28;20048;-46
2022/08/24 04:29:52;;;;;;;2.95;2.75;;;21.10;59.60;;;;;;5047566;28;20072;-45
2022/08/24 04:32:19;;;;;;;3.17;2.58;;;21.10;59.90;;;;;;5023680;28;20038;-45
2022/08/24 04:34:46;;;;;;;4.20;2.50;;;21.10;60.10;;;;;;5023265;28;20041;-49
2022/08/24 04:37:17;;;;;;;3.90;3.28;;;21.10;60.00;;;;;;5029184;28;20061;-46
2022/08/24 04:39:52;;;;;;;3.58;2.80;;;21.00;60.30;;;;;;5031725;28;20029;-46
2022/08/24 04:42:23;;;;;;;2.85;2.63;;;21.00;60.20;;;;;;5026534;28;20576;-48
2022/08/24 04:44:51;;;;;;;4.07;2.95;;;21.00;60.10;;;;;;5044858;28;20068;-46
2022/08/24 04:47:23;;;;;;;3.63;2.17;;;21.00;60.20;;;;;;5038507;28;20046;-46
2022/08/24 04:49:58;;;;;;;2.22;2.13;;;21.00;60.30;;;;;;5045452;28;20080;-47
2022/08/24 04:52:25;;;;;;;4.13;2.40;;;21.00;60.30;;;;;;5042841;28;20073;-47
2022/08/24 04:54:59;;;;;;;2.85;2.50;;;21.00;60.50;;;;;;5031839;28;20116;-48
2022/08/24 04:57:26;;;;;;;3.38;2.67;;;21.00;60.40;;;;;;5047142;28;20518;-47
2022/08/24 04:59:59;;;;;;;2.65;2.40;;;21.00;60.50;;;;;;5025663;28;20045;-46
2022/08/24 05:02:26;;;;;;;2.72;2.53;;;21.00;60.80;;;;;;5024080;28;20046;-47
2022/08/24 05:04:56;;;;;;;3.00;2.40;;;21.00;60.70;;;;;;5029627;28;20061;-46
2022/08/24 05:07:24;;;;;;;2.58;2.38;;;21.00;60.80;;;;;;5030068;28;20041;-47
2022/08/24 05:09:56;;;;;;;2.95;2.75;;;21.00;61.00;;;;;;5023523;28;20033;-48
2022/08/24 05:12:24;;;;;;;4.22;2.90;;;21.00;61.10;;;;;;5029580;28;20041;-47
2022/08/24 05:14:58;;;;;;;3.53;2.85;;;21.00;61.30;;;;;;5046199;28;20045;-47
2022/08/24 05:17:26;;;;;;;2.67;2.47;;;21.00;61.30;;;;;;5027854;28;20413;-46
2022/08/24 05:19:57;;;;;;;2.88;2.67;;;21.00;61.40;;;;;;5046435;28;20065;-46
2022/08/24 05:22:24;;;;;;;3.88;3.47;;;21.00;62.20;;;;;;5045075;28;20049;-49
2022/08/24 05:24:53;;;;;;;4.97;2.75;;;21.10;61.80;;;;;;5024693;28;20493;-46
2022/08/24 05:27:22;;;;;;;3.30;3.00;;;21.10;61.90;;;;;;5045990;28;20132;-46
2022/08/24 05:29:54;;;;;;;3.28;2.97;;;21.10;62.00;;;;;;5035297;28;20057;-49
2022/08/24 05:32:22;;;;;;;3.30;3.00;;;21.10;62.40;;;;;;5045220;28;20065;-46
2022/08/24 05:34:52;;;;;;;3.30;3.03;;;21.20;62.40;;;;;;5046536;28;20041;-47
2022/08/24 05:37:21;;;;;;;4.57;3.22;;;21.20;62.50;;;;;;5029025;28;20044;-48
2022/08/24 05:40:12;;;;;;;3.30;3.00;;;21.20;62.60;;;;;;5045203;28;20077;-47
2022/08/24 05:42:42;;;;;;;3.35;3.05;;;21.30;62.90;;;;;;5013538;28;20049;-48
2022/08/24 05:45:10;;;;;;;3.70;3.30;;;21.30;62.80;;;;;;5028971;28;20050;-50
2022/08/24 05:47:39;;;;;;;3.60;3.38;;;21.30;62.90;;;;;;5018569;28;20069;-45
2022/08/24 05:50:41;;;;;;;3.53;3.22;;;21.40;63.10;;;;;;5002860;28;20053;-51
2022/08/24 05:53:12;;;;;;;4.32;3.90;;;21.40;62.90;;;;;;4992086;28;20038;-48
2022/08/24 05:55:39;;;;;;;4.22;3.83;;;21.50;63.30;;;;;;4999025;28;20097;-47
2022/08/24 05:58:10;;;;;;;4.28;3.88;;;21.50;63.40;;;;;;4995338;28;20049;-47
2022/08/24 06:00:49;;;;;;;4.53;4.13;;;21.60;63.60;;;;;;5046209;28;20417;-46
2022/08/24 06:03:16;;;;;;;5.47;4.85;;;21.60;63.70;;;;;;5043748;28;20069;-50
2022/08/24 06:05:49;;;;;;;5.45;4.97;;;21.60;63.90;;;;;;5031305;28;20148;-48
2022/08/24 06:08:15;;;;;;;5.20;4.70;;;21.70;64.00;;;;;;5045403;28;20051;-47
2022/08/24 06:10:46;;;;;;;5.25;4.65;;;21.80;64.80;;;;;;5028721;28;20069;-48
2022/08/24 06:13:16;;;;;;;5.38;4.88;;;21.80;64.30;;;;;;5029006;28;20700;-47
2022/08/24 06:15:43;;;;;;;8.50;5.43;;;21.80;64.20;;;;;;5040552;28;20067;-49
2022/08/24 06:18:41;;;;;;;5.60;5.13;;;21.90;64.40;;;;;;5042226;28;20053;-48
2022/08/24 06:21:11;;;;;;;6.25;5.68;;;22.00;65.00;;;;;;5048286;28;20127;-47
2022/08/24 06:23:42;;;;;;;5.70;5.25;;;22.00;64.50;;;;;;5029401;28;20064;-49
2022/08/24 06:29:10;;;;;;;9.38;6.30;;;22.10;64.90;;;;;;5050484;28;20037;-46
2022/08/24 06:31:49;;;;;;;7.05;6.35;;;22.20;64.60;;;;;;5045548;28;20041;-50
2022/08/24 06:34:23;;;;;;;6.32;5.72;;;22.20;65.10;;;;;;5048519;28;20044;-47
2022/08/24 06:36:51;;;;;;;6.55;6.00;;;22.30;65.00;;;;;;5047846;28;20517;-48
2022/08/24 06:39:20;;;;;;;6.90;5.82;;;22.30;65.00;;;;;;5030508;28;20493;-47
2022/08/24 06:41:50;;;;;;;6.53;5.95;;;22.40;65.20;;;;;;5043161;28;20049;-46
2022/08/24 06:44:30;;;;;;;7.95;5.45;;;22.40;65.20;;;;;;5047901;28;20052;-50
2022/08/24 06:47:05;;;;;;;7.50;6.80;;;22.50;65.30;;;;;;5034923;28;20037;-45
2022/08/24 06:49:32;;;;;;;7.70;6.93;;;22.50;65.30;;;;;;5053235;28;20068;-50
2022/08/24 06:52:03;;;;;;;8.27;7.47;;;22.60;65.40;;;;;;5044405;28;20042;-50
2022/08/24 06:54:30;;;;;;;9.32;8.32;;;22.60;65.40;;;;;;5035233;28;20131;-46
2022/08/24 06:57:02;;;;;;;9.07;8.30;;;22.70;65.50;;;;;;5051686;28;20041;-47
2022/08/24 06:59:30;;;;;;;11.73;9.95;;;22.80;64.90;;;;;;5034220;28;20057;-49
2022/08/24 07:01:59;;;;;;;12.85;10.02;;;22.80;64.70;;;;;;5043435;28;20073;-47
2022/08/24 07:04:29;;;;;;;10.25;9.23;;;22.90;64.50;;;;;;5052291;28;20053;-46
2022/08/24 07:07:22;;;;;;;10.43;9.30;;;23.00;64.10;;;;;;5024545;28;20069;-48
2022/08/24 07:09:51;;;;;;;10.88;9.77;;;23.00;64.10;;;;;;5049419;28;20045;-51
2022/08/24 07:12:18;;;;;;;9.70;8.68;;;23.10;64.10;;;;;;5047654;28;20049;-45
2022/08/24 07:14:47;;;;;;;10.27;8.57;;;23.20;64.30;;;;;;5040082;28;20059;-46
2022/08/24 07:17:16;;;;;;;8.95;8.07;;;23.30;64.20;;;;;;5051355;28;20073;-47
2022/08/24 07:19:46;;;;;;;8.93;7.93;;;23.30;64.50;;;;;;5046999;28;20045;-47
2022/08/24 07:22:25;;;;;;;9.20;8.25;;;23.40;64.10;;;;;;5039431;28;20060;-47
2022/08/24 07:24:52;;;;;;;12.75;8.40;;;23.50;63.80;;;;;;5035495;28;20052;-50
2022/08/24 07:27:22;;;;;;;15.45;8.07;;;23.60;63.60;;;;;;5049645;28;20045;-46
2022/08/24 07:29:52;;;;;;;10.27;8.32;;;23.70;63.60;;;;;;5048834;28;20041;-48
2022/08/24 07:32:42;;;;;;;8.15;7.43;;;23.70;63.40;;;;;;5046364;28;20040;-47
2022/08/24 07:35:11;;;;;;;8.95;7.75;;;23.80;63.10;;;;;;5052278;28;20041;-47
2022/08/24 07:37:41;;;;;;;10.75;7.78;;;23.80;63.20;;;;;;5049881;28;20095;-47
2022/08/24 07:40:11;;;;;;;10.40;8.13;;;23.90;62.60;;;;;;5049043;28;20120;-48
2022/08/24 07:42:47;;;;;;;8.00;7.20;;;24.00;62.40;;;;;;5050516;28;20080;-48
2022/08/24 07:45:17;;;;;;;8.02;6.78;;;24.00;62.10;;;;;;5034427;28;20130;-50
2022/08/24 07:47:48;;;;;;;7.82;6.82;;;24.10;62.00;;;;;;5046289;28;20046;-51
2022/08/24 07:50:42;;;;;;;8.45;5.97;;;24.20;61.70;;;;;;5051943;28;20057;-50
2022/08/24 07:53:09;;;;;;;7.00;6.13;;;24.30;61.60;;;;;;5051559;28;20056;-50
2022/08/24 07:55:57;;;;;;;8.80;5.70;;;24.30;61.60;;;;;;5032364;28;20463;-50
2022/08/24 07:58:24;;;;;;;8.85;5.30;;;24.40;62.10;;;;;;5026701;28;20095;-48
2022/08/24 08:00:51;;;;;;;9.38;5.95;;;24.50;61.60;;;;;;5052792;28;20037;-49
2022/08/24 08:03:20;;;;;;;8.18;5.85;;;24.50;61.20;;;;;;5051344;28;20041;-47
2022/08/24 08:05:55;;;;;;;11.23;6.32;;;24.60;61.10;;;;;;5029098;28;20092;-51
2022/08/24 08:08:25;;;;;;;7.18;5.93;;;24.70;60.60;;;;;;5051474;28;20128;-50
2022/08/24 08:10:56;;;;;;;7.10;5.73;;;24.80;60.30;;;;;;5034530;28;20464;-46
2022/08/24 08:13:22;;;;;;;8.70;5.60;;;24.90;60.30;;;;;;5051257;28;20041;-47
2022/08/24 08:15:50;;;;;;;11.75;5.60;;;24.90;60.20;;;;;;5034234;28;20062;-46
2022/08/24 08:18:18;;;;;;;10.43;6.20;;;25.00;59.90;;;;;;5046179;28;20037;-49
2022/08/24 08:20:47;;;;;;;8.25;6.00;;;25.20;59.50;;;;;;5033820;28;20068;-48
2022/08/24 08:26:24;;;;;;;11.02;5.28;;;25.30;59.00;;;;;;5047961;28;20311;-51
2022/08/24 08:29:02;;;;;;;7.25;5.32;;;25.30;58.20;;;;;;5048995;28;20048;-48
2022/08/24 08:31:32;;;;;;;6.22;5.53;;;25.40;58.30;;;;;;5033934;28;20115;-47
2022/08/24 08:34:01;;;;;;;10.35;5.50;;;25.60;58.60;;;;;;5051073;28;20136;-48
2022/08/24 08:36:28;;;;;;;8.32;5.75;;;25.50;58.10;;;;;;5043960;28;20100;-48
2022/08/24 08:38:59;;;;;;;6.97;5.18;;;25.60;58.10;;;;;;5051207;28;20516;-47
2022/08/24 08:41:53;;;;;;;7.43;5.55;;;25.60;58.10;;;;;;5051622;28;20045;-51
2022/08/24 08:44:34;;;;;;;7.45;5.63;;;25.70;57.90;;;;;;5029532;28;20049;-51
2022/08/24 08:47:10;;;;;;;5.82;5.10;;;25.70;57.70;;;;;;5049792;28;20131;-47
2022/08/24 08:50:13;;;;;;;8.00;5.50;;;25.80;57.70;;;;;;5050765;28;20041;-49
2022/08/24 08:53:24;;;;;;;7.18;5.13;;;25.90;57.60;;;;;;5044736;28;20061;-51
2022/08/24 08:56:20;;;;;;;5.55;4.80;;;26.00;57.80;;;;;;5045560;28;20124;-47
2022/08/24 08:59:21;;;;;;;6.15;4.72;;;26.10;58.00;;;;;;5050752;28;20041;-51
2022/08/24 09:02:27;;;;;;;6.88;4.78;;;26.20;57.20;;;;;;5029641;28;20045;-50
2022/08/24 09:05:27;;;;;;;10.50;4.60;;;26.30;56.80;;;;;;5048448;28;20050;-47
2022/08/24 09:08:21;;;;;;;6.30;4.03;;;26.40;56.90;;;;;;5050354;28;20421;-48
2022/08/24 09:11:15;;;;;;;5.65;4.03;;;26.50;57.00;;;;;;5048429;28;20041;-49
2022/08/24 09:13:44;;;;;;;5.65;4.72;;;26.60;56.80;;;;;;5037802;28;20037;-52
2022/08/24 09:16:59;;;;;;;3.72;3.42;;;26.70;56.50;;;;;;5032655;28;20064;-49
2022/08/24 09:19:43;;;;;;;6.45;4.15;;;26.90;56.20;;;;;;5033923;28;20053;-50
2022/08/24 09:22:18;;;;;;;4.75;3.47;;;26.90;55.50;;;;;;5049344;28;20452;-48
2022/08/24 09:25:02;;;;;;;5.97;3.72;;;27.10;55.40;;;;;;5050955;28;20048;-51
2022/08/24 09:27:36;;;;;;;4.00;3.22;;;27.20;55.00;;;;;;5032420;28;20041;-48
2022/08/24 09:30:17;;;;;;;6.47;3.78;;;27.30;55.00;;;;;;5035787;28;20045;-49
2022/08/24 09:33:08;;;;;;;9.13;4.43;;;27.40;54.90;;;;;;5041710;28;20095;-47
2022/08/24 09:35:57;;;;;;;5.20;3.10;;;27.50;54.00;;;;;;5045170;28;20091;-52
2022/08/24 09:38:49;;;;;;;6.43;4.38;;;27.60;54.20;;;;;;5031280;28;20052;-49
2022/08/24 09:41:24;;;;;;;7.43;3.70;;;27.60;53.70;;;;;;5046780;28;20497;-49
2022/08/24 09:44:20;;;;;;;3.78;3.20;;;27.70;53.50;;;;;;5050177;28;20041;-47
2022/08/24 09:46:59;;;;;;;5.57;3.40;;;27.80;52.90;;;;;;5036296;28;20064;-51
2022/08/24 09:50:03;;;;;;;4.32;2.88;;;27.80;52.80;;;;;;5047129;28;20087;-51
2022/08/24 09:52:46;;;;;;;2.38;2.17;;;27.90;52.80;;;;;;5040624;28;20045;-49
2022/08/24 09:55:42;;;;;;;5.65;3.03;;;27.90;51.80;;;;;;5049008;28;20040;-50
2022/08/24 09:58:31;;;;;;;5.43;3.35;;;28.00;51.30;;;;;;5050375;28;20049;-50
2022/08/24 10:01:14;;;;;;;5.53;2.80;;;28.10;51.60;;;;;;5046205;28;20586;-48
2022/08/24 10:04:00;;;;;;;4.88;3.30;;;28.10;51.50;;;;;;5050576;28;20040;-47
2022/08/24 10:06:53;;;;;;;4.22;2.08;;;28.20;50.40;;;;;;5048912;28;20037;-48
2022/08/24 10:09:52;;;;;;;6.88;2.25;;;28.30;50.00;;;;;;5047541;28;20049;-46
2022/08/24 10:12:34;;;;;;;3.95;2.10;;;28.40;49.80;;;;;;5049783;28;20033;-51
2022/08/24 10:15:04;;;;;;;4.90;2.08;;;28.40;49.10;;;;;;5049888;28;20100;-51
2022/08/24 10:18:11;;;;;;;5.13;2.03;;;28.50;49.60;;;;;;5050493;28;20041;-48
2022/08/24 10:20:37;;;;;;;2.55;1.90;;;28.60;49.50;;;;;;5050799;28;20092;-51
2022/08/24 10:23:34;;;;;;;5.80;2.13;;;28.70;49.10;;;;;;5056424;28;20095;-49
2022/08/24 10:26:10;;;;;;;4.65;2.00;;;28.80;48.60;;;;;;5051770;28;20045;-46
2022/08/24 10:29:10;;;;;;;2.97;2.72;;;28.90;47.80;;;;;;5045886;28;20063;-51
2022/08/24 10:32:00;;;;;;;2.55;1.90;;;29.10;47.40;;;;;;5049975;28;20136;-47
2022/08/24 10:34:58;;;;;;;1.55;1.45;;;29.20;47.00;;;;;;5037442;28;20045;-48
2022/08/24 10:37:34;;;;;;;4.38;1.60;;;29.30;47.00;;;;;;5041360;28;20094;-47
2022/08/24 10:40:32;;;;;;;2.05;1.63;;;29.40;46.70;;;;;;5056386;28;20045;-52
2022/08/24 10:43:38;;;;;;;5.03;1.58;;;29.50;45.90;;;;;;5056024;28;20041;-48
2022/08/24 10:46:32;;;;;;;4.30;1.45;;;29.70;45.80;;;;;;5048511;28;20049;-47
2022/08/24 10:49:17;;;;;;;4.57;1.35;;;29.80;46.00;;;;;;5055443;28;20051;-47
2022/08/24 10:51:44;;;;;;;2.90;1.30;;;30.00;46.00;;;;;;5055205;28;20114;-51
2022/08/24 10:54:14;;;;;;;4.38;2.13;;;30.10;45.30;;;;;;5051102;28;20113;-51
2022/08/24 10:56:44;;;;;;;2.03;1.00;;;30.30;45.20;;;;;;5055687;28;20087;-50
2022/08/24 10:59:28;;;;;;;0.88;0.88;;;30.50;44.40;;;;;;5039533;28;20048;-49
2022/08/24 11:02:29;;;;;;;2.15;0.80;;;30.70;44.50;;;;;;5050940;28;20063;-47
2022/08/24 11:05:09;;;;;;;1.38;1.10;;;30.80;43.60;;;;;;5048703;28;20040;-47
2022/08/24 11:07:56;;;;;;;1.55;1.10;;;31.00;42.80;;;;;;5053030;28;20091;-49
2022/08/24 11:10:28;;;;;;;1.98;1.02;;;31.20;43.70;;;;;;5048003;28;20043;-50
2022/08/24 11:13:12;;;;;;;0.95;0.90;;;31.30;42.80;;;;;;5056160;28;20041;-51
2022/08/24 11:15:46;;;;;;;7.43;0.93;;;31.30;42.90;;;;;;5054147;28;20079;-48
2022/08/24 11:18:16;;;;;;;2.35;1.20;;;31.50;42.50;;;;;;5056251;28;20049;-47
2022/08/24 11:20:45;;;;;;;1.60;1.15;;;31.50;41.80;;;;;;5056080;28;20094;-50
2022/08/24 11:23:34;;;;;;;6.13;1.20;;;31.50;41.90;;;;;;5055571;28;20398;-50
2022/08/24 11:26:02;;;;;;;2.45;1.35;;;31.50;42.00;;;;;;5054010;28;20041;-50
2022/08/24 11:28:40;;;;;;;1.58;1.30;;;31.50;41.50;;;;;;5055437;28;20140;-50
2022/08/24 11:31:27;;;;;;;3.38;1.20;;;31.50;41.00;;;;;;5052148;28;20082;-47
2022/08/24 11:34:06;;;;;;;2.97;1.30;;;31.40;40.80;;;;;;5050987;28;20037;-51
2022/08/24 11:36:36;;;;;;;2.53;1.30;;;31.40;41.40;;;;;;5052171;28;20052;-47
2022/08/24 11:39:23;;;;;;;2.85;1.40;;;31.30;41.60;;;;;;5053872;28;20048;-47
2022/08/24 11:42:00;;;;;;;3.22;1.23;;;31.30;41.20;;;;;;5047434;28;20040;-48
2022/08/24 11:44:46;;;;;;;4.07;1.67;;;31.20;41.80;;;;;;5050765;28;20041;-47
2022/08/24 11:47:36;;;;;;;2.78;1.50;;;31.20;42.20;;;;;;5052418;28;20060;-47
2022/08/24 11:50:25;;;;;;;2.92;1.63;;;31.20;42.50;;;;;;5053213;28;20040;-49
2022/08/24 11:52:58;;;;;;;2.67;1.27;;;31.20;42.80;;;;;;5045409;28;20410;-47
2022/08/24 11:55:47;;;;;;;2.35;1.05;;;31.20;42.80;;;;;;5052166;28;20029;-49
2022/08/24 11:58:36;;;;;;;1.25;1.15;;;31.20;42.60;;;;;;5052774;28;20106;-48
2022/08/24 12:01:16;;;;;;;1.63;1.52;;;31.30;42.30;;;;;;5040424;28;20041;-49
2022/08/24 12:04:02;;;;;;;2.03;1.13;;;31.30;41.80;;;;;;5049080;28;20045;-47
2022/08/24 12:07:13;;;;;;;1.00;0.88;;;31.30;41.40;;;;;;5051229;28;20103;-50
2022/08/24 12:10:13;;;;;;;1.70;1.23;;;31.30;40.70;;;;;;5053128;28;20037;-47
2022/08/24 12:12:50;;;;;;;4.13;1.60;;;31.40;40.40;;;;;;5048279;28;20052;-48
2022/08/24 12:15:20;;;;;;;2.05;1.45;;;31.40;40.80;;;;;;5052017;28;20040;-51
2022/08/24 12:17:57;;;;;;;1.58;1.10;;;31.50;40.10;;;;;;5052309;28;20079;-50
2022/08/24 12:20:32;;;;;;;1.65;1.38;;;31.50;40.30;;;;;;5048640;28;20413;-49
2022/08/24 12:23:06;;;;;;;2.53;1.48;;;31.60;40.20;;;;;;5049415;28;20037;-51
2022/08/24 12:28:40;;;;;;;3.28;1.08;;;31.70;40.60;;;;;;5052452;28;20047;-51
2022/08/24 12:31:14;;;;;;;1.73;1.02;;;31.80;40.60;;;;;;5046849;28;20037;-48
2022/08/24 12:33:47;;;;;;;1.45;1.25;;;31.80;40.00;;;;;;5052053;28;20063;-50
2022/08/24 12:36:40;;;;;;;3.58;1.38;;;31.90;39.70;;;;;;5050940;28;20041;-50
2022/08/24 12:39:14;;;;;;;2.13;1.50;;;31.90;39.80;;;;;;5043856;28;20033;-51
2022/08/24 12:42:14;;;;;;;2.03;1.25;;;32.10;39.80;;;;;;5045557;28;20131;-47
2022/08/24 12:44:51;;;;;;;1.38;1.10;;;32.20;39.30;;;;;;5051575;28;20063;-49
2022/08/24 12:47:23;;;;;;;1.45;1.05;;;32.30;39.50;;;;;;5051093;28;20485;-47
2022/08/24 12:49:54;;;;;;;;;;;32.40;39.50;;;;;;5047370;28;20094;-51
2022/08/24 12:52:55;;;;;;;1.88;1.20;;;32.50;40.50;;;;;;5040632;28;19921;-48
2022/08/24 12:55:42;;;;;;;4.35;1.73;;;32.70;39.10;;;;;;5051033;28;20037;-48
2022/08/24 12:58:25;;;;;;;3.45;1.20;;;32.80;38.60;;;;;;5045836;28;20037;-47
2022/08/24 13:01:04;;;;;;;3.08;1.40;;;32.90;38.10;;;;;;5048962;28;20524;-51
2022/08/24 13:03:39;;;;;;;3.65;1.33;;;33.10;38.20;;;;;;5051345;28;20049;-48
2022/08/24 13:06:16;;;;;;;1.33;1.08;;;33.20;38.00;;;;;;5046048;28;20045;-47
2022/08/24 13:08:47;;;;;;;1.40;0.95;;;33.30;37.30;;;;;;5046324;28;20037;-51
2022/08/24 13:11:32;;;;;;;;;;;33.50;37.70;;;;;;5050964;28;20501;-49
2022/08/24 13:14:19;;;;;;;2.67;1.60;;;33.60;39.10;;;;;;5049975;28;19983;-47
2022/08/24 13:16:55;;;;;;;2.17;1.42;;;33.80;37.50;;;;;;5045976;28;20038;-47
2022/08/24 13:19:22;;;;;;;1.95;1.02;;;33.90;36.00;;;;;;5051780;28;20044;-52
2022/08/24 13:22:16;;;;;;;1.38;1.27;;;34.00;36.20;;;;;;5050560;28;20041;-51
2022/08/24 13:24:58;;;;;;;1.58;1.30;;;34.10;35.40;;;;;;5048621;28;20099;-52
2022/08/24 13:27:41;;;;;;;5.72;2.53;;;34.20;36.30;;;;;;5045185;28;20052;-50
2022/08/24 13:30:20;;;;;;;2.53;1.70;;;34.30;35.60;;;;;;5049086;28;20043;-48
2022/08/24 13:33:01;;;;;;;1.27;1.17;;;34.50;34.80;;;;;;5050747;28;20051;-47
2022/08/24 13:35:37;;;;;;;2.25;1.50;;;34.60;34.90;;;;;;5030336;28;20048;-50
2022/08/24 13:38:32;;;;;;;2.88;1.30;;;34.80;35.10;;;;;;5049175;28;20045;-46
2022/08/24 13:41:37;;;;;;;2.42;1.27;;;35.30;35.50;;;;;;5051093;28;20048;-49
2022/08/24 13:44:27;;;;;;;3.70;1.30;;;35.80;35.20;;;;;;5050204;28;20142;-52
2022/08/24 13:47:30;;;;;;;1.67;0.98;;;36.80;35.50;;;;;;5049325;28;20053;-51